sensor_id;sensor_type;location;lat;lon;timestamp;pressure;altitude;pressure_sealevel;temperature;humidity
64876;BME280;51369;49.862;9.908;2022-10-16T00:00:32;98134.00;;;17.46;91.17
64876;BME280;51369;49.862;9.908;2022-10-16T00:02:58;98134.00;;;17.46;91.04
64876;BME280;51369;49.862;9.908;2022-10-16T00:05:24;98137.63;;;17.47;90.70
64876;BME280;51369;49.862;9.908;2022-10-16T00:07:49;98137.50;;;17.48;90.49
64876;BME280;51369;49.862;9.908;2022-10-16T00:10:14;98137.50;;;17.48;91.01
64876;BME280;51369;49.862;9.908;2022-10-16T00:12:40;98136.50;;;17.49;91.03
64876;BME280;51369;49.862;9.908;2022-10-16T00:15:06;98136.50;;;17.49;91.03
64876;BME280;51369;49.862;9.908;2022-10-16T00:17:32;98139.25;;;17.49;90.98
64876;BME280;51369;49.862;9.908;2022-10-16T00:19:57;98143.72;;;17.50;90.83
64876;BME280;51369;49.862;9.908;2022-10-16T00:22:23;98141.84;;;17.51;91.03
64876;BME280;51369;49.862;9.908;2022-10-16T00:24:48;98141.84;;;17.51;90.81
64876;BME280;51369;49.862;9.908;2022-10-16T00:27:14;98144.69;;;17.49;90.50
64876;BME280;51369;49.862;9.908;2022-10-16T00:29:39;98139.25;;;17.49;90.95
64876;BME280;51369;49.862;9.908;2022-10-16T00:32:05;98140.22;;;17.48;91.15
64876;BME280;51369;49.862;9.908;2022-10-16T00:34:30;98141.22;;;17.47;90.69
64876;BME280;51369;49.862;9.908;2022-10-16T00:36:56;98144.81;;;17.48;90.99
64876;BME280;51369;49.862;9.908;2022-10-16T00:39:21;98142.09;;;17.48;90.91
64876;BME280;51369;49.862;9.908;2022-10-16T00:41:47;98143.31;;;17.44;90.79
64876;BME280;51369;49.862;9.908;2022-10-16T00:47:09;98140.56;;;17.44;91.35
64876;BME280;51369;49.862;9.908;2022-10-16T00:49:35;98143.19;;;17.45;91.53
64876;BME280;51369;49.862;9.908;2022-10-16T00:52:00;98137.84;;;17.44;91.53
64876;BME280;51369;49.862;9.908;2022-10-16T00:54:29;98139.69;;;17.43;91.98
64876;BME280;51369;49.862;9.908;2022-10-16T00:56:57;98148.88;;;17.42;91.46
64876;BME280;51369;49.862;9.908;2022-10-16T00:59:36;98150.84;;;17.40;92.01
64876;BME280;51369;49.862;9.908;2022-10-16T01:02:03;98160.78;;;17.41;91.35
64876;BME280;51369;49.862;9.908;2022-10-16T01:04:37;98160.00;;;17.39;91.20
64876;BME280;51369;49.862;9.908;2022-10-16T01:10:19;98160.25;;;17.36;90.95
64876;BME280;51369;49.862;9.908;2022-10-16T01:12:59;98165.97;;;17.33;91.03
64876;BME280;51369;49.862;9.908;2022-10-16T01:15:47;98158.97;;;17.29;91.24
64876;BME280;51369;49.862;9.908;2022-10-16T01:18:24;98174.47;;;17.29;90.54
64876;BME280;51369;49.862;9.908;2022-10-16T01:20:59;98170.13;;;17.26;90.73
64876;BME280;51369;49.862;9.908;2022-10-16T01:26:36;98177.00;;;17.19;90.83
64876;BME280;51369;49.862;9.908;2022-10-16T01:31:35;98181.16;;;17.12;89.56
64876;BME280;51369;49.862;9.908;2022-10-16T01:36:59;98183.69;;;17.02;88.68
64876;BME280;51369;49.862;9.908;2022-10-16T01:39:28;98192.97;;;17.00;88.99
64876;BME280;51369;49.862;9.908;2022-10-16T01:42:00;98184.00;;;16.98;88.31
64876;BME280;51369;49.862;9.908;2022-10-16T01:44:31;98178.88;;;16.93;88.73
64876;BME280;51369;49.862;9.908;2022-10-16T01:46:58;98169.94;;;16.91;88.83
64876;BME280;51369;49.862;9.908;2022-10-16T01:49:27;98175.50;;;16.89;89.31
64876;BME280;51369;49.862;9.908;2022-10-16T01:51:58;98167.53;;;16.86;89.36
64876;BME280;51369;49.862;9.908;2022-10-16T01:54:30;98168.63;;;16.84;89.78
64876;BME280;51369;49.862;9.908;2022-10-16T01:56:58;98175.19;;;16.81;89.58
64876;BME280;51369;49.862;9.908;2022-10-16T01:59:25;98183.25;;;16.83;89.78
64876;BME280;51369;49.862;9.908;2022-10-16T02:02:01;98171.47;;;16.82;90.09
64876;BME280;51369;49.862;9.908;2022-10-16T02:04:34;98166.03;;;16.82;90.51
64876;BME280;51369;49.862;9.908;2022-10-16T02:07:01;98164.06;;;16.84;90.41
64876;BME280;51369;49.862;9.908;2022-10-16T02:09:27;98162.09;;;16.86;90.60
64876;BME280;51369;49.862;9.908;2022-10-16T02:11:57;98170.38;;;16.85;90.76
64876;BME280;51369;49.862;9.908;2022-10-16T02:14:25;98175.84;;;16.85;90.97
64876;BME280;51369;49.862;9.908;2022-10-16T02:16:51;98175.72;;;16.86;91.51
64876;BME280;51369;49.862;9.908;2022-10-16T02:19:18;98173.00;;;16.86;91.45
64876;BME280;51369;49.862;9.908;2022-10-16T02:21:56;98170.28;;;16.86;91.61
64876;BME280;51369;49.862;9.908;2022-10-16T02:30:24;98174.53;;;16.90;92.11
64876;BME280;51369;49.862;9.908;2022-10-16T02:32:51;98170.81;;;16.91;91.87
64876;BME280;51369;49.862;9.908;2022-10-16T02:35:20;98178.00;;;16.92;92.30
64876;BME280;51369;49.862;9.908;2022-10-16T02:37:46;98173.44;;;16.93;91.90
64876;BME280;51369;49.862;9.908;2022-10-16T02:40:13;98175.19;;;16.94;92.03
64876;BME280;51369;49.862;9.908;2022-10-16T02:42:40;98182.47;;;16.94;92.09
64876;BME280;51369;49.862;9.908;2022-10-16T02:45:08;98174.97;;;16.97;92.05
64876;BME280;51369;49.862;9.908;2022-10-16T02:47:33;98174.97;;;16.97;91.92
64876;BME280;51369;49.862;9.908;2022-10-16T02:49:59;98182.25;;;16.97;92.19
64876;BME280;51369;49.862;9.908;2022-10-16T02:52:24;98188.69;;;16.96;91.83
64876;BME280;51369;49.862;9.908;2022-10-16T02:54:50;98195.03;;;16.96;92.15
64876;BME280;51369;49.862;9.908;2022-10-16T02:57:15;98189.78;;;16.93;92.78
64876;BME280;51369;49.862;9.908;2022-10-16T02:59:41;98184.22;;;16.95;92.34
64876;BME280;51369;49.862;9.908;2022-10-16T03:02:06;98180.84;;;16.91;92.53
64876;BME280;51369;49.862;9.908;2022-10-16T03:04:32;98178.22;;;16.89;92.22
64876;BME280;51369;49.862;9.908;2022-10-16T03:06:58;98196.34;;;16.90;92.53
64876;BME280;51369;49.862;9.908;2022-10-16T03:09:23;98184.56;;;16.90;92.52
64876;BME280;51369;49.862;9.908;2022-10-16T03:11:49;98179.09;;;16.90;92.77
64876;BME280;51369;49.862;9.908;2022-10-16T03:14:15;98177.25;;;16.90;92.72
64876;BME280;51369;49.862;9.908;2022-10-16T03:16:42;98180.63;;;16.94;92.68
64876;BME280;51369;49.862;9.908;2022-10-16T03:19:07;98180.63;;;16.94;92.46
64876;BME280;51369;49.862;9.908;2022-10-16T03:21:33;98178.44;;;16.99;92.88
64876;BME280;51369;49.862;9.908;2022-10-16T03:23:58;98180.06;;;17.02;92.33
64876;BME280;51369;49.862;9.908;2022-10-16T03:26:23;98186.28;;;17.04;92.35
64876;BME280;51369;49.862;9.908;2022-10-16T03:28:49;98180.84;;;17.04;92.23
64876;BME280;51369;49.862;9.908;2022-10-16T03:31:14;98185.44;;;17.03;91.72
64876;BME280;51369;49.862;9.908;2022-10-16T03:33:40;98182.81;;;17.02;92.13
64876;BME280;51369;49.862;9.908;2022-10-16T03:36:05;98178.34;;;17.01;92.34
64876;BME280;51369;49.862;9.908;2022-10-16T03:38:32;98183.91;;;16.99;92.32
64876;BME280;51369;49.862;9.908;2022-10-16T03:40:57;98183.03;;;16.99;91.67
64876;BME280;51369;49.862;9.908;2022-10-16T03:43:23;98198.53;;;16.98;92.23
64876;BME280;51369;49.862;9.908;2022-10-16T03:45:50;98189.47;;;16.98;91.98
64876;BME280;51369;49.862;9.908;2022-10-16T03:48:17;98190.13;;;16.88;92.26
64876;BME280;51369;49.862;9.908;2022-10-16T03:50:43;98186.63;;;16.86;92.69
64876;BME280;51369;49.862;9.908;2022-10-16T03:53:08;98184.00;;;16.85;92.76
64876;BME280;51369;49.862;9.908;2022-10-16T03:55:34;98185.75;;;16.86;92.52
64876;BME280;51369;49.862;9.908;2022-10-16T03:58:00;98197.66;;;16.85;92.83
64876;BME280;51369;49.862;9.908;2022-10-16T04:00:26;98195.69;;;16.87;92.34
64876;BME280;51369;49.862;9.908;2022-10-16T04:02:51;98200.38;;;16.85;92.12
64876;BME280;51369;49.862;9.908;2022-10-16T04:05:16;98209.53;;;16.84;92.84
64876;BME280;51369;49.862;9.908;2022-10-16T04:07:42;98211.38;;;16.83;92.88
64876;BME280;51369;49.862;9.908;2022-10-16T04:10:07;98201.34;;;16.84;92.76
64876;BME280;51369;49.862;9.908;2022-10-16T04:12:33;98213.13;;;16.84;92.73
64876;BME280;51369;49.862;9.908;2022-10-16T04:14:58;98210.41;;;16.84;93.43
64876;BME280;51369;49.862;9.908;2022-10-16T04:17:24;98208.44;;;16.86;92.75
64876;BME280;51369;49.862;9.908;2022-10-16T04:19:49;98213.91;;;16.86;92.80
64876;BME280;51369;49.862;9.908;2022-10-16T04:22:15;98219.25;;;16.88;92.79
64876;BME280;51369;49.862;9.908;2022-10-16T04:24:40;98218.38;;;16.87;92.55
64876;BME280;51369;49.862;9.908;2022-10-16T04:27:06;98218.38;;;16.87;92.80
64876;BME280;51369;49.862;9.908;2022-10-16T04:29:31;98218.25;;;16.89;92.93
64876;BME280;51369;49.862;9.908;2022-10-16T04:31:57;98219.13;;;16.89;92.48
64876;BME280;51369;49.862;9.908;2022-10-16T04:34:22;98212.69;;;16.90;92.69
64876;BME280;51369;49.862;9.908;2022-10-16T04:36:48;98221.88;;;16.89;92.72
64876;BME280;51369;49.862;9.908;2022-10-16T04:39:14;98234.53;;;16.90;92.61
64876;BME280;51369;49.862;9.908;2022-10-16T04:41:40;98247.16;;;16.91;92.29
64876;BME280;51369;49.862;9.908;2022-10-16T04:44:05;98245.53;;;16.89;92.85
64876;BME280;51369;49.862;9.908;2022-10-16T04:46:30;98239.09;;;16.90;92.70
64876;BME280;51369;49.862;9.908;2022-10-16T04:48:56;98237.25;;;16.90;92.56
64876;BME280;51369;49.862;9.908;2022-10-16T04:51:21;98241.72;;;16.91;92.62
64876;BME280;51369;49.862;9.908;2022-10-16T04:53:46;98259.94;;;16.91;92.69
64876;BME280;51369;49.862;9.908;2022-10-16T04:56:12;98252.63;;;16.91;92.71
64876;BME280;51369;49.862;9.908;2022-10-16T04:58:37;98255.34;;;16.91;93.13
64876;BME280;51369;49.862;9.908;2022-10-16T05:01:03;98249.91;;;16.91;93.19
64876;BME280;51369;49.862;9.908;2022-10-16T05:03:28;98235.38;;;16.91;93.25
64876;BME280;51369;49.862;9.908;2022-10-16T05:05:54;98234.41;;;16.92;92.90
64876;BME280;51369;49.862;9.908;2022-10-16T05:08:19;98235.38;;;16.91;92.94
64876;BME280;51369;49.862;9.908;2022-10-16T05:10:45;98225.47;;;16.90;92.71
64876;BME280;51369;49.862;9.908;2022-10-16T05:13:11;98236.38;;;16.90;92.92
64876;BME280;51369;49.862;9.908;2022-10-16T05:15:36;98243.78;;;16.88;92.89
64876;BME280;51369;49.862;9.908;2022-10-16T05:18:02;98251.00;;;16.89;92.51
64876;BME280;51369;49.862;9.908;2022-10-16T05:20:27;98264.63;;;16.89;93.06
64876;BME280;51369;49.862;9.908;2022-10-16T05:22:53;98247.28;;;16.90;92.78
64876;BME280;51369;49.862;9.908;2022-10-16T05:25:18;98250.88;;;16.90;92.91
64876;BME280;51369;49.862;9.908;2022-10-16T05:27:47;98255.34;;;16.91;92.92
64876;BME280;51369;49.862;9.908;2022-10-16T05:30:13;98252.63;;;16.91;92.60
64876;BME280;51369;49.862;9.908;2022-10-16T05:32:39;98248.16;;;16.90;92.19
64876;BME280;51369;49.862;9.908;2022-10-16T05:35:04;98254.38;;;16.92;92.17
64876;BME280;51369;49.862;9.908;2022-10-16T05:37:30;98240.84;;;16.91;92.82
64876;BME280;51369;49.862;9.908;2022-10-16T05:39:55;98245.31;;;16.92;92.35
64876;BME280;51369;49.862;9.908;2022-10-16T05:42:21;98248.03;;;16.92;92.64
64876;BME280;51369;49.862;9.908;2022-10-16T05:44:46;98239.09;;;16.90;92.60
64876;BME280;51369;49.862;9.908;2022-10-16T05:47:14;98235.59;;;16.88;92.14
64876;BME280;51369;49.862;9.908;2022-10-16T05:49:40;98259.28;;;16.87;92.06
64876;BME280;51369;49.862;9.908;2022-10-16T05:52:06;98265.72;;;16.86;92.10
64876;BME280;51369;49.862;9.908;2022-10-16T05:54:31;98261.13;;;16.87;91.94
64876;BME280;51369;49.862;9.908;2022-10-16T05:56:57;98253.94;;;16.86;92.18
64876;BME280;51369;49.862;9.908;2022-10-16T05:59:22;98245.63;;;16.87;92.08
64876;BME280;51369;49.862;9.908;2022-10-16T06:01:48;98251.09;;;16.87;91.48
64876;BME280;51369;49.862;9.908;2022-10-16T06:04:13;98262.97;;;16.86;91.62
64876;BME280;51369;49.862;9.908;2022-10-16T06:06:38;98275.75;;;16.86;91.75
64876;BME280;51369;49.862;9.908;2022-10-16T06:09:04;98283.06;;;16.85;92.08
64876;BME280;51369;49.862;9.908;2022-10-16T06:11:31;98274.75;;;16.87;91.84
64876;BME280;51369;49.862;9.908;2022-10-16T06:13:59;98283.06;;;16.85;92.15
64876;BME280;51369;49.862;9.908;2022-10-16T06:16:27;98276.72;;;16.85;91.63
64876;BME280;51369;49.862;9.908;2022-10-16T06:18:54;98273.13;;;16.84;91.69
64876;BME280;51369;49.862;9.908;2022-10-16T06:21:23;98275.84;;;16.84;91.43
64876;BME280;51369;49.862;9.908;2022-10-16T06:23:50;98279.44;;;16.85;91.26
64876;BME280;51369;49.862;9.908;2022-10-16T06:26:18;98278.56;;;16.84;92.34
64876;BME280;51369;49.862;9.908;2022-10-16T06:28:44;98281.19;;;16.86;91.90
64876;BME280;51369;49.862;9.908;2022-10-16T06:31:11;98298.44;;;16.86;91.68
64876;BME280;51369;49.862;9.908;2022-10-16T06:33:37;98297.44;;;16.87;91.68
64876;BME280;51369;49.862;9.908;2022-10-16T06:36:06;98304.66;;;16.88;91.70
64876;BME280;51369;49.862;9.908;2022-10-16T06:38:32;98309.03;;;16.91;92.17
64876;BME280;51369;49.862;9.908;2022-10-16T06:40:58;98310.66;;;16.94;92.28
64876;BME280;51369;49.862;9.908;2022-10-16T06:43:24;98321.47;;;16.95;92.48
64876;BME280;51369;49.862;9.908;2022-10-16T06:45:55;98317.66;;;16.98;92.42
64876;BME280;51369;49.862;9.908;2022-10-16T06:48:22;98328.34;;;17.01;92.20
64876;BME280;51369;49.862;9.908;2022-10-16T06:51:09;98332.72;;;17.03;92.08
64876;BME280;51369;49.862;9.908;2022-10-16T06:53:36;98333.38;;;17.07;92.27
64876;BME280;51369;49.862;9.908;2022-10-16T06:56:13;98341.44;;;17.08;92.47
64876;BME280;51369;49.862;9.908;2022-10-16T06:58:39;98345.59;;;17.14;92.73
64876;BME280;51369;49.862;9.908;2022-10-16T07:01:05;98347.25;;;17.16;92.51
64876;BME280;51369;49.862;9.908;2022-10-16T07:03:31;98349.00;;;17.17;92.20
64876;BME280;51369;49.862;9.908;2022-10-16T07:06:01;98361.75;;;17.17;92.41
64876;BME280;51369;49.862;9.908;2022-10-16T07:08:27;98367.22;;;17.17;92.15
64876;BME280;51369;49.862;9.908;2022-10-16T07:11:00;98366.44;;;17.15;92.15
64876;BME280;51369;49.862;9.908;2022-10-16T07:13:26;98358.16;;;17.16;92.02
64876;BME280;51369;49.862;9.908;2022-10-16T07:15:51;98358.16;;;17.16;91.99
64876;BME280;51369;49.862;9.908;2022-10-16T07:18:16;98363.41;;;17.19;92.25
64876;BME280;51369;49.862;9.908;2022-10-16T07:20:42;98372.25;;;17.23;92.48
64876;BME280;51369;49.862;9.908;2022-10-16T07:23:07;98377.38;;;17.28;92.64
64876;BME280;51369;49.862;9.908;2022-10-16T07:25:33;98383.50;;;17.31;92.60
64876;BME280;51369;49.862;9.908;2022-10-16T07:27:58;98389.47;;;17.36;92.82
64876;BME280;51369;49.862;9.908;2022-10-16T07:30:23;98385.66;;;17.39;92.63
64876;BME280;51369;49.862;9.908;2022-10-16T07:32:49;98378.13;;;17.42;92.71
64876;BME280;51369;49.862;9.908;2022-10-16T07:35:14;98387.97;;;17.45;92.97
64876;BME280;51369;49.862;9.908;2022-10-16T07:37:44;98385.03;;;17.48;92.50
64876;BME280;51369;49.862;9.908;2022-10-16T07:40:09;98386.66;;;17.50;93.14
64876;BME280;51369;49.862;9.908;2022-10-16T07:42:35;98386.44;;;17.53;93.33
64876;BME280;51369;49.862;9.908;2022-10-16T07:45:01;98397.16;;;17.56;92.76
64876;BME280;51369;49.862;9.908;2022-10-16T07:47:26;98393.00;;;17.64;92.92
64876;BME280;51369;49.862;9.908;2022-10-16T07:49:52;98402.75;;;17.68;93.25
64876;BME280;51369;49.862;9.908;2022-10-16T07:52:18;98398.72;;;17.73;93.13
64876;BME280;51369;49.862;9.908;2022-10-16T07:54:43;98391.94;;;17.79;93.54
64876;BME280;51369;49.862;9.908;2022-10-16T07:57:08;98393.47;;;17.83;93.54
64876;BME280;51369;49.862;9.908;2022-10-16T07:59:34;98393.25;;;17.86;93.39
64876;BME280;51369;49.862;9.908;2022-10-16T08:01:59;98401.09;;;17.91;92.95
64876;BME280;51369;49.862;9.908;2022-10-16T08:04:25;98401.75;;;17.94;93.03
64876;BME280;51369;49.862;9.908;2022-10-16T08:06:50;98400.44;;;18.00;93.17
64876;BME280;51369;49.862;9.908;2022-10-16T08:09:15;98401.97;;;18.04;93.73
64876;BME280;51369;49.862;9.908;2022-10-16T08:11:41;98391.69;;;18.07;92.89
64876;BME280;51369;49.862;9.908;2022-10-16T08:14:06;98391.47;;;18.10;93.23
64876;BME280;51369;49.862;9.908;2022-10-16T08:16:32;98397.47;;;18.15;93.20
64876;BME280;51369;49.862;9.908;2022-10-16T08:18:57;98407.19;;;18.19;92.81
64876;BME280;51369;49.862;9.908;2022-10-16T08:21:23;98412.44;;;18.23;93.14
64876;BME280;51369;49.862;9.908;2022-10-16T08:23:49;98424.88;;;18.27;92.35
64876;BME280;51369;49.862;9.908;2022-10-16T08:26:15;98421.06;;;18.29;92.51
64876;BME280;51369;49.862;9.908;2022-10-16T08:28:41;98423.44;;;18.34;92.24
64876;BME280;51369;49.862;9.908;2022-10-16T08:33:32;98424.00;;;18.39;92.98
64876;BME280;51369;49.862;9.908;2022-10-16T08:35:57;98432.72;;;18.44;92.60
64876;BME280;51369;49.862;9.908;2022-10-16T08:38:22;98435.88;;;18.50;92.86
64876;BME280;51369;49.862;9.908;2022-10-16T08:40:48;98428.09;;;18.57;93.23
64876;BME280;51369;49.862;9.908;2022-10-16T08:46:12;98434.44;;;18.70;93.01
64876;BME280;51369;49.862;9.908;2022-10-16T08:48:49;98439.22;;;18.79;92.50
64876;BME280;51369;49.862;9.908;2022-10-16T08:51:25;98441.50;;;18.85;92.43
64876;BME280;51369;49.862;9.908;2022-10-16T08:53:58;98445.41;;;18.94;92.18
64876;BME280;51369;49.862;9.908;2022-10-16T08:56:25;98434.97;;;18.99;91.82
64876;BME280;51369;49.862;9.908;2022-10-16T08:58:52;98448.31;;;19.04;91.00
64876;BME280;51369;49.862;9.908;2022-10-16T09:01:19;98445.19;;;19.08;90.92
64876;BME280;51369;49.862;9.908;2022-10-16T09:11:48;98461.38;;;19.11;89.73
64876;BME280;51369;49.862;9.908;2022-10-16T09:17:36;98467.59;;;19.13;89.26
64876;BME280;51369;49.862;9.908;2022-10-16T09:20:38;98472.97;;;19.15;89.17
64876;BME280;51369;49.862;9.908;2022-10-16T09:23:12;98465.16;;;19.22;90.00
64876;BME280;51369;49.862;9.908;2022-10-16T09:25:42;98474.13;;;19.24;89.29
64876;BME280;51369;49.862;9.908;2022-10-16T09:28:09;98473.91;;;19.27;90.10
64876;BME280;51369;49.862;9.908;2022-10-16T09:30:35;98475.53;;;19.29;89.96
64876;BME280;51369;49.862;9.908;2022-10-16T09:33:02;98469.69;;;19.34;90.30
64876;BME280;51369;49.862;9.908;2022-10-16T09:35:38;98476.81;;;19.36;89.63
64876;BME280;51369;49.862;9.908;2022-10-16T09:38:05;98476.31;;;19.42;90.23
64876;BME280;51369;49.862;9.908;2022-10-16T09:40:33;98470.63;;;19.45;89.66
64876;BME280;51369;49.862;9.908;2022-10-16T09:45:31;98480.34;;;19.49;89.24
64876;BME280;51369;49.862;9.908;2022-10-16T09:47:56;98482.09;;;19.50;89.53
64876;BME280;51369;49.862;9.908;2022-10-16T09:50:25;98502.38;;;19.48;88.75
64876;BME280;51369;49.862;9.908;2022-10-16T09:53:21;98512.69;;;19.44;88.53
64876;BME280;51369;49.862;9.908;2022-10-16T09:55:54;98533.94;;;19.41;87.86
64876;BME280;51369;49.862;9.908;2022-10-16T09:58:23;98518.97;;;19.34;87.88
64876;BME280;51369;49.862;9.908;2022-10-16T10:00:52;98519.56;;;19.26;88.29
64876;BME280;51369;49.862;9.908;2022-10-16T10:05:55;98524.72;;;19.18;89.49
64876;BME280;51369;49.862;9.908;2022-10-16T10:08:21;98525.19;;;19.12;89.19
64876;BME280;51369;49.862;9.908;2022-10-16T10:10:48;98529.28;;;19.06;89.09
64876;BME280;51369;49.862;9.908;2022-10-16T10:13:24;98541.47;;;19.02;89.95
64876;BME280;51369;49.862;9.908;2022-10-16T10:15:50;98530.63;;;19.01;90.04
64876;BME280;51369;49.862;9.908;2022-10-16T10:18:18;98538.19;;;18.97;90.29
64876;BME280;51369;49.862;9.908;2022-10-16T10:20:45;98545.75;;;18.94;90.01
64876;BME280;51369;49.862;9.908;2022-10-16T10:23:24;98554.31;;;18.89;90.41
64876;BME280;51369;49.862;9.908;2022-10-16T10:31:29;98559.22;;;18.84;90.26
64876;BME280;51369;49.862;9.908;2022-10-16T10:37:02;98563.72;;;18.85;90.88
64876;BME280;51369;49.862;9.908;2022-10-16T10:39:38;98567.44;;;18.84;90.85
64876;BME280;51369;49.862;9.908;2022-10-16T10:55:23;98525.97;;;19.14;93.36
64876;BME280;51369;49.862;9.908;2022-10-16T10:58:39;98534.47;;;19.22;93.82
64876;BME280;51369;49.862;9.908;2022-10-16T11:01:08;98538.59;;;19.28;93.68
64876;BME280;51369;49.862;9.908;2022-10-16T11:06:30;98536.28;;;19.34;94.12
64876;BME280;51369;49.862;9.908;2022-10-16T11:09:10;98535.94;;;19.39;94.29
64876;BME280;51369;49.862;9.908;2022-10-16T11:19:25;98535.91;;;19.87;94.48
64876;BME280;51369;49.862;9.908;2022-10-16T11:22:02;98534.09;;;19.98;94.32
64876;BME280;51369;49.862;9.908;2022-10-16T11:26:59;98526.16;;;20.18;93.96
64876;BME280;51369;49.862;9.908;2022-10-16T11:29:30;98525.41;;;20.27;94.05
64876;BME280;51369;49.862;9.908;2022-10-16T11:32:00;98528.31;;;20.36;93.57
64876;BME280;51369;49.862;9.908;2022-10-16T11:34:35;98531.47;;;20.43;93.29
64876;BME280;51369;49.862;9.908;2022-10-16T11:37:12;98534.69;;;20.48;92.24
64876;BME280;51369;49.862;9.908;2022-10-16T11:39:39;98528.59;;;20.56;91.91
64876;BME280;51369;49.862;9.908;2022-10-16T11:42:37;98530.97;;;20.60;91.49
64876;BME280;51369;49.862;9.908;2022-10-16T11:45:12;98531.84;;;20.72;91.12
64876;BME280;51369;49.862;9.908;2022-10-16T11:47:51;98536.09;;;20.76;90.79
64876;BME280;51369;49.862;9.908;2022-10-16T11:50:25;98528.19;;;20.83;90.45
64876;BME280;51369;49.862;9.908;2022-10-16T11:53:01;98522.06;;;20.90;90.26
64876;BME280;51369;49.862;9.908;2022-10-16T11:55:39;98521.44;;;20.98;90.19
64876;BME280;51369;49.862;9.908;2022-10-16T12:08:41;98524.13;;;21.42;88.59
64876;BME280;51369;49.862;9.908;2022-10-16T12:11:34;98519.59;;;21.53;88.30
64876;BME280;51369;49.862;9.908;2022-10-16T12:14:18;98514.78;;;21.66;87.59
64876;BME280;51369;49.862;9.908;2022-10-16T12:16:56;98509.50;;;21.74;85.56
64876;BME280;51369;49.862;9.908;2022-10-16T12:19:23;98508.50;;;21.75;83.70
64876;BME280;51369;49.862;9.908;2022-10-16T12:21:50;98502.00;;;21.76;82.03
64876;BME280;51369;49.862;9.908;2022-10-16T12:27:00;98507.72;;;21.84;81.61
64876;BME280;51369;49.862;9.908;2022-10-16T12:29:32;98509.06;;;21.90;81.14
64876;BME280;51369;49.862;9.908;2022-10-16T12:31:58;98512.13;;;21.96;81.10
64876;BME280;51369;49.862;9.908;2022-10-16T12:34:37;98512.50;;;22.03;82.04
64876;BME280;51369;49.862;9.908;2022-10-16T12:37:14;98510.84;;;22.12;82.26
64876;BME280;51369;49.862;9.908;2022-10-16T12:39:40;98512.03;;;22.19;81.63
64876;BME280;51369;49.862;9.908;2022-10-16T12:44:54;98509.50;;;22.27;80.64
64876;BME280;51369;49.862;9.908;2022-10-16T12:49:54;98513.03;;;22.38;81.55
64876;BME280;51369;49.862;9.908;2022-10-16T12:52:25;98527.84;;;22.47;81.69
64876;BME280;51369;49.862;9.908;2022-10-16T12:54:51;98527.59;;;22.60;81.69
64876;BME280;51369;49.862;9.908;2022-10-16T13:00:22;98520.84;;;22.73;79.47
64876;BME280;51369;49.862;9.908;2022-10-16T13:05:33;98516.44;;;22.82;79.55
64876;BME280;51369;49.862;9.908;2022-10-16T13:13:44;98513.91;;;23.10;80.38
64876;BME280;51369;49.862;9.908;2022-10-16T13:19:06;98531.66;;;23.26;77.81
64876;BME280;51369;49.862;9.908;2022-10-16T13:21:46;98519.78;;;23.35;76.85
64876;BME280;51369;49.862;9.908;2022-10-16T13:27:35;98518.53;;;23.59;78.35
64876;BME280;51369;49.862;9.908;2022-10-16T13:30:26;98529.44;;;23.70;77.39
64876;BME280;51369;49.862;9.908;2022-10-16T13:33:16;98523.63;;;23.73;75.09
64876;BME280;51369;49.862;9.908;2022-10-16T13:35:55;98525.06;;;23.67;74.47
64876;BME280;51369;49.862;9.908;2022-10-16T13:38:27;98522.44;;;23.56;75.11
64876;BME280;51369;49.862;9.908;2022-10-16T13:40:56;98530.66;;;23.47;76.01
64876;BME280;51369;49.862;9.908;2022-10-16T13:43:26;98535.44;;;23.35;75.25
64876;BME280;51369;49.862;9.908;2022-10-16T13:46:01;98542.34;;;23.20;76.36
64876;BME280;51369;49.862;9.908;2022-10-16T13:48:29;98539.44;;;23.12;76.81
64876;BME280;51369;49.862;9.908;2022-10-16T13:51:03;98541.28;;;23.01;76.88
64876;BME280;51369;49.862;9.908;2022-10-16T13:53:35;98535.59;;;22.93;77.16
64876;BME280;51369;49.862;9.908;2022-10-16T13:56:04;98539.66;;;22.89;76.13
64876;BME280;51369;49.862;9.908;2022-10-16T13:58:30;98545.44;;;22.86;76.79
64876;BME280;51369;49.862;9.908;2022-10-16T14:01:04;98555.84;;;22.83;76.76
64876;BME280;51369;49.862;9.908;2022-10-16T14:03:34;98554.84;;;22.84;77.56
64876;BME280;51369;49.862;9.908;2022-10-16T14:06:03;98549.47;;;22.82;77.90
64876;BME280;51369;49.862;9.908;2022-10-16T14:08:30;98555.09;;;22.81;77.98
64876;BME280;51369;49.862;9.908;2022-10-16T14:10:58;98556.84;;;22.82;78.80
64876;BME280;51369;49.862;9.908;2022-10-16T14:13:37;98556.13;;;22.80;78.89
64876;BME280;51369;49.862;9.908;2022-10-16T14:16:07;98558.88;;;22.80;78.38
64876;BME280;51369;49.862;9.908;2022-10-16T14:18:34;98560.84;;;22.78;77.72
64876;BME280;51369;49.862;9.908;2022-10-16T14:21:11;98552.00;;;22.74;77.57
64876;BME280;51369;49.862;9.908;2022-10-16T14:23:38;98548.50;;;22.72;77.41
64876;BME280;51369;49.862;9.908;2022-10-16T14:28:39;98552.28;;;22.71;77.64
64876;BME280;51369;49.862;9.908;2022-10-16T14:33:51;98558.47;;;22.63;77.05
64876;BME280;51369;49.862;9.908;2022-10-16T14:36:16;98558.00;;;22.58;77.25
64876;BME280;51369;49.862;9.908;2022-10-16T14:39:06;98555.97;;;22.51;77.41
64876;BME280;51369;49.862;9.908;2022-10-16T14:41:45;98553.34;;;22.49;77.51
64876;BME280;51369;49.862;9.908;2022-10-16T14:44:11;98560.88;;;22.47;78.17
64876;BME280;51369;49.862;9.908;2022-10-16T14:46:40;98562.00;;;22.45;78.04
64876;BME280;51369;49.862;9.908;2022-10-16T14:51:36;98553.56;;;22.36;77.91
64876;BME280;51369;49.862;9.908;2022-10-16T14:54:02;98556.72;;;22.32;78.10
64876;BME280;51369;49.862;9.908;2022-10-16T14:56:42;98555.50;;;22.25;77.76
64876;BME280;51369;49.862;9.908;2022-10-16T14:59:14;98556.91;;;22.19;78.11
64876;BME280;51369;49.862;9.908;2022-10-16T15:01:43;98564.81;;;22.13;78.08
64876;BME280;51369;49.862;9.908;2022-10-16T15:04:11;98572.59;;;22.07;78.46
64876;BME280;51369;49.862;9.908;2022-10-16T15:06:37;98568.50;;;22.02;78.68
64876;BME280;51369;49.862;9.908;2022-10-16T15:09:03;98576.38;;;21.95;78.78